Flight Track Log - Related Links

Times and Time Zones

All times are in EDT time to prevent confusion due to time zone crossing. See the UPS2940 flight status page for this flight to view local times or setup timezone preferences in your user account.

Time Position Orientation Groundspeed Altitude Reporting Facility
EDT Latitude Longitude Course Direction KTS MPH feet Rate Location/Type
Wed 03:35:44 PM 33.8730 -81.5620 251° West 306 352 13,400  Level FlightAware ADS-B
Wed 03:36:19 PM 33.8570 -81.6160 250° West 298 343 15,300 2,743 Climbing FlightAware ADS-B
Wed 03:36:54 PM 33.8430 -81.6710 253° West 311 358 16,600 2,160 Climbing FlightAware ADS-B
Wed 03:37:34 PM 33.8240 -81.7440 253° West 332 382 18,000 2,400 Climbing FlightAware ADS-B
Wed 03:38:09 PM 33.8070 -81.8040 251° West 328 377 19,600 2,400 Climbing FlightAware ADS-B
Wed 03:38:49 PM 33.7880 -81.8730 252° West 336 387 21,000 2,000 Climbing FlightAware ADS-B
Wed 03:39:15 PM 33.7750 -81.9190 251° West 343 395 21,800 1,569 Climbing FlightAware ADS-B
Wed 03:39:54 PM 33.7560 -81.9880 252° West 360 414 22,700 1,747 Climbing FlightAware ADS-B
Wed 03:40:34 PM 33.7340 -82.0680 252° West 366 421 24,100 1,971 Climbing FlightAware ADS-B
Wed 03:41:04 PM 33.7190 -82.1240 252° West 371 427 25,000 1,333 Climbing FlightAware ADS-B
Wed 03:41:19 PM 33.7150 -82.1590 262° West 386 444 25,100 682 Climbing FlightAware ADS-B
Wed 03:41:48 PM 33.7300 -82.2170 287° West 405 466 25,500 738 Climbing FlightAware ADS-B
Wed 03:42:24 PM 33.7640 -82.2960 297° West 433 498 25,900 423 Climbing FlightAware ADS-B
Wed 03:42:59 PM 33.8040 -82.3650 305° West 439 505 26,000 369 Climbing FlightAware ADS-B
Wed 03:43:29 PM 33.8490 -82.4140 318° Northwest 432 497 26,300 1,569 Climbing FlightAware ADS-B
Wed 03:44:04 PM 33.9030 -82.4670 321° Northwest 409 471 27,700 2,480 Climbing FlightAware ADS-B
Wed 03:44:44 PM 33.9440 -82.5360 306° West 387 445 29,400 1,835 Climbing FlightAware ADS-B
Wed 03:45:29 PM 33.9430 -82.5340 121° Southeast 394 453 30,300 1,275 Climbing FlightAware ADS-B
Wed 03:46:04 PM 33.9430 -82.5340 121° Southeast 394 453 31,100 1,453 Climbing FlightAware ADS-B
Wed 03:47:04 PM 34.0570 -82.8170 296° West 405 466 32,600 978 Climbing FlightAware ADS-B
Wed 03:47:36 PM 34.0790 -82.8710 296° West 406 467 32,600 730 Level FlightAware ADS-B
Wed 03:48:18 PM 34.1214 -82.9764 296° West 432 497 33,500 988 Climbing FlightAware ADS-B
Wed 03:49:01 PM 34.1591 -83.0703 296° West 445 512 34,000 411 Climbing FlightAware ADS-B
Wed 03:49:31 PM 34.1865 -83.1391 296° West 453 521 34,000  Level FlightAware ADS-B
Wed 03:50:03 PM 34.2156 -83.2121 296° West 454 522 34,000  Level FlightAware ADS-B
Wed 03:50:37 PM 34.2470 -83.2908 296° West 452 520 34,000  Level FlightAware ADS-B
Wed 03:51:17 PM 34.2830 -83.3817 296° West 450 518 34,000  Level FlightAware ADS-B
Wed 03:51:49 PM 34.3114 -83.4534 296° West 445 512 34,000  Level FlightAware ADS-B
Wed 03:52:19 PM 34.3380 -83.5210 295° West 443 510 34,000  Level FlightAware ADS-B
Wed 03:52:49 PM 34.3645 -83.5887 295° West 442 509 34,000  Level FlightAware ADS-B
Wed 03:53:21 PM 34.3924 -83.6597 295° West 440 506 34,000  Level FlightAware ADS-B
Wed 03:53:51 PM 34.4186 -83.7264 295° West 438 504 34,000  Level FlightAware ADS-B
Wed 03:54:22 PM 34.4456 -83.7958 295° West 438 504 34,000  Level FlightAware ADS-B
Wed 03:54:53 PM 34.4724 -83.8647 295° West 437 503 34,000  Level FlightAware ADS-B
Wed 03:55:25 PM 34.4997 -83.9349 295° West 438 504 34,000  Level FlightAware ADS-B
Wed 03:55:55 PM 34.5260 -84.0031 295° West 438 504 34,000  Level FlightAware ADS-B
Wed 03:56:26 PM 34.5517 -84.0706 295° West 438 504 34,000  Level FlightAware ADS-B
Wed 03:56:56 PM 34.5772 -84.1379 295° West 439 505 34,000  Level FlightAware ADS-B
Wed 03:57:26 PM 34.6032 -84.2067 295° West 441 507 34,000  Level FlightAware ADS-B
Wed 03:58:00 PM 34.6317 -84.2822 295° West 442 509 34,000  Level FlightAware ADS-B
Wed 03:58:31 PM 34.6584 -84.3534 295° West 443 510 34,000  Level FlightAware ADS-B
Wed 03:59:05 PM 34.6874 -84.4302 295° West 444 511 34,000  Level FlightAware ADS-B
Wed 03:59:37 PM 34.7152 -84.5040 295° West 445 512 34,000  Level FlightAware ADS-B
Wed 04:00:09 PM 34.7425 -84.5767 295° West 445 512 34,000  Level FlightAware ADS-B
Wed 04:00:40 PM 34.7687 -84.6465 295° West 444 511 34,000  Level FlightAware ADS-B
Wed 04:01:15 PM 34.7986 -84.7266 294° West 444 511 34,000  Level FlightAware ADS-B
Wed 04:01:46 PM 34.8247 -84.7966 294° West 442 509 34,000  Level FlightAware ADS-B
Wed 04:02:36 PM 34.8670 -84.9090 295° West 438 504 34,000  Level FlightAware ADS-B
Wed 04:03:08 PM 34.8950 -84.9810 295° West 436 502 34,000  Level FlightAware ADS-B
Wed 04:03:21 PM 34.9069 -85.0114 296° West 435 501 34,000  Level FlightAware ADS-B
Wed 04:03:52 PM 34.9326 -85.0784 295° West 434 499 34,000  Level FlightAware ADS-B
Wed 04:04:22 PM 34.9570 -85.1458 294° West 432 497 34,000  Level FlightAware ADS-B
Wed 04:04:40 PM 34.9689 -85.1878 289° West 434 499 34,000  Level FlightAware ADS-B
Wed 04:05:12 PM 34.9864 -85.2631 286° West 436 502 34,000  Level FlightAware ADS-B
Wed 04:05:45 PM 35.0041 -85.3420 285° West 438 504 34,000  Level FlightAware ADS-B
Wed 04:06:17 PM 35.0212 -85.4183 285° West 439 505 34,000  Level FlightAware ADS-B
Wed 04:07:14 PM 35.0510 -85.5530 285° West 443 510 34,000  Level FlightAware ADS-B
Wed 04:07:30 PM 35.0603 -85.5932 286° West 445 512 34,000  Level FlightAware ADS-B
Wed 04:08:01 PM 35.0773 -85.6700 285° West 448 516 34,000  Level FlightAware ADS-B
Wed 04:08:35 PM 35.0955 -85.7528 285° West 449 517 34,000 627 Level FlightAware ADS-B
Wed 04:09:08 PM 35.1130 -85.8332 285° West 448 516 34,700 1,524 Climbing FlightAware ADS-B
Wed 04:09:38 PM 35.1289 -85.9062 285° West 445 512 35,600 1,114 Climbing FlightAware ADS-B
Wed 04:10:18 PM 35.1500 -86.0020 285° West 438 504 36,000 333 Climbing FlightAware ADS-B
Wed 04:10:50 PM 35.1660 -86.0770 285° West 438 504 36,000  Level FlightAware ADS-B
Wed 04:11:27 PM 35.1850 -86.1680 284° West 442 509 36,000  Level FlightAware ADS-B
Wed 04:12:03 PM 35.2020 -86.2460 285° West 442 509 36,000  Level FlightAware ADS-B
Wed 04:12:35 PM 35.2200 -86.3310 285° West 441 507 36,000  Level FlightAware ADS-B
Wed 04:13:11 PM 35.2380 -86.4160 285° West 441 507 36,000  Level FlightAware ADS-B
Wed 04:13:47 PM 35.2580 -86.5070 285° West 442 509 36,000  Level FlightAware ADS-B
Wed 04:14:23 PM 35.2760 -86.5940 284° West 440 506 36,000  Level FlightAware ADS-B
Wed 04:14:55 PM 35.2920 -86.6690 285° West 439 505 36,000  Level FlightAware ADS-B
Wed 04:15:29 PM 35.3100 -86.7520 285° West 437 503 36,000  Level FlightAware ADS-B
Wed 04:16:01 PM 35.3260 -86.8270 285° West 435 501 36,000  Level FlightAware ADS-B
Wed 04:16:20 PM 35.3356 -86.8732 284° West 436 502 36,000  Level FlightAware ADS-B
Wed 04:16:58 PM 35.3546 -86.9636 284° West 436 502 36,000  Level FlightAware ADS-B
Wed 04:17:28 PM 35.3696 -87.0364 284° West 437 503 36,000  Level FlightAware ADS-B
Wed 04:17:59 PM 35.3850 -87.1107 284° West 436 502 36,000  Level FlightAware ADS-B
Wed 04:18:32 PM 35.4014 -87.1907 284° West 436 502 36,000  Level FlightAware ADS-B
Wed 04:19:03 PM 35.4160 -87.2640 284° West 436 502 36,000  Level FlightAware ADS-B
Wed 04:19:37 PM 35.4330 -87.3460 284° West 437 503 36,000  Level FlightAware ADS-B
Wed 04:20:11 PM 35.4480 -87.4230 283° West 437 503 36,000  Level FlightAware ADS-B
Wed 04:20:47 PM 35.4660 -87.5110 284° West 438 504 36,000  Level FlightAware ADS-B
Wed 04:21:17 PM 35.4810 -87.5810 285° West 436 502 36,000  Level FlightAware ADS-B
Wed 04:21:57 PM 35.4970 -87.6680 283° West 436 502 36,000  Level FlightAware ADS-B
Wed 04:22:34 PM 35.5110 -87.7440 283° West 436 502 36,000  Level FlightAware ADS-B
Wed 04:23:11 PM 35.5260 -87.8200 284° West 436 502 36,000  Level FlightAware ADS-B
Wed 04:23:48 PM 35.5400 -87.8960 283° West 436 502 36,000  Level FlightAware ADS-B
Wed 04:24:24 PM 35.5540 -87.9700 283° West 436 502 36,000  Level FlightAware ADS-B
Wed 04:25:01 PM 35.5680 -88.0460 283° West 436 502 36,000  Level FlightAware ADS-B
Wed 04:25:39 PM 35.5830 -88.1240 283° West 436 502 36,000  Level FlightAware ADS-B
Wed 04:26:17 PM 35.5970 -88.2020 282° West 436 502 36,000  Level FlightAware ADS-B
Wed 04:27:06 PM 35.6160 -88.3030 283° West 436 502 36,000  Level FlightAware ADS-B
Wed 04:27:42 PM 35.6300 -88.3770 283° West 436 502 36,000  Level FlightAware ADS-B
Wed 04:28:18 PM 35.6440 -88.4510 283° West 436 502 36,000  Level FlightAware ADS-B
Wed 04:28:54 PM 35.6580 -88.5250 283° West 436 502 36,000  Level FlightAware ADS-B
Wed 04:29:30 PM 35.6720 -88.5990 283° West 436 502 36,000  Level FlightAware ADS-B
Wed 04:30:07 PM 35.6860 -88.6750 283° West 436 502 36,000  Level FlightAware ADS-B
Wed 04:30:43 PM 35.7000 -88.7490 283° West 436 502 36,000  Level FlightAware ADS-B
Wed 04:31:19 PM 35.7140 -88.8230 283° West 436 502 36,000  Level FlightAware ADS-B
Wed 04:32:36 PM 35.7969 -89.2233 283° West 449 517 36,000  Level Memphis Center
Wed 04:33:37 PM 35.8231 -89.3714 282° West 449 517 36,000  Level Memphis Center
Wed 04:39:32 PM 35.9930 -90.2860 282° West 449 517 36,000  Level FlightAware ADS-B
Wed 04:40:07 PM 36.0070 -90.3690 282° West 449 517 36,000  Level FlightAware ADS-B
Wed 04:40:47 PM 36.0220 -90.4550 282° West 449 517 36,000  Level FlightAware ADS-B
Wed 04:41:26 PM 36.0420 -90.5710 282° West 447 514 36,000  Level FlightAware ADS-B
Wed 04:42:02 PM 36.0580 -90.6600 283° West 448 516 36,000  Level FlightAware ADS-B
Wed 04:42:34 PM 36.0720 -90.7420 282° West 448 516 36,000  Level FlightAware ADS-B
Wed 04:43:26 PM 36.0930 -90.8710 281° West 448 516 36,000  Level FlightAware ADS-B
Wed 04:43:58 PM 36.1070 -90.9550 282° West 449 517 36,000  Level FlightAware ADS-B
Wed 04:44:36 PM 36.1220 -91.0530 281° West 450 518 36,000  Level FlightAware ADS-B
Wed 04:45:15 PM 36.1340 -91.1410 280° West 450 518 36,000  Level FlightAware ADS-B
Wed 04:45:51 PM 36.1450 -91.2180 280° West 450 518 36,000  Level FlightAware ADS-B
Wed 04:46:27 PM 36.1560 -91.2960 280° West 450 518 36,000  Level FlightAware ADS-B
Wed 04:47:02 PM 36.1760 -91.4260 281° West 454 522 36,000  Level FlightAware ADS-B
Wed 04:47:38 PM 36.1880 -91.5150 280° West 454 522 36,000  Level FlightAware ADS-B
Wed 04:48:14 PM 36.2020 -91.6140 280° West 455 524 36,000  Level FlightAware ADS-B
Wed 04:48:46 PM 36.2140 -91.6970 280° West 455 524 36,000  Level FlightAware ADS-B
Wed 04:49:22 PM 36.2260 -91.7880 279° West 456 525 36,000  Level FlightAware ADS-B
Wed 04:49:54 PM 36.2370 -91.8710 279° West 456 525 36,000  Level FlightAware ADS-B
Wed 04:50:30 PM 36.2500 -91.9650 280° West 457 526 36,000  Level FlightAware ADS-B
Wed 04:51:06 PM 36.2620 -92.0600 279° West 456 525 36,000  Level FlightAware ADS-B
Wed 04:51:38 PM 36.2730 -92.1410 280° West 455 524 36,000  Level FlightAware ADS-B
Wed 04:52:18 PM 36.2870 -92.2450 280° West 456 525 36,000  Level FlightAware ADS-B
Wed 04:52:50 PM 36.2980 -92.3280 279° West 457 526 36,000  Level FlightAware ADS-B
Wed 04:53:24 PM 36.3090 -92.4170 279° West 457 526 36,000  Level FlightAware ADS-B
Wed 04:54:02 PM 36.3220 -92.5170 279° West 457 526 36,000  Level FlightAware ADS-B
Wed 04:54:38 PM 36.3340 -92.6100 279° West 457 526 36,000  Level FlightAware ADS-B
Wed 04:55:10 PM 36.3440 -92.6930 279° West 456 525 36,000  Level FlightAware ADS-B
Wed 04:55:48 PM 36.3570 -92.7910 279° West 456 525 36,000  Level FlightAware ADS-B
Wed 04:56:20 PM 36.3670 -92.8750 278° West 455 524 36,000  Level FlightAware ADS-B
Wed 04:56:54 PM 36.3780 -92.9640 279° West 456 525 36,000  Level FlightAware ADS-B
Wed 04:57:32 PM 36.3900 -93.0610 279° West 457 526 36,000  Level FlightAware ADS-B
Wed 04:58:04 PM 36.4000 -93.1440 279° West 458 527 36,000  Level FlightAware ADS-B
Wed 04:58:40 PM 36.4120 -93.2400 279° West 460 529 36,000  Level FlightAware ADS-B
Wed 04:59:16 PM 36.4240 -93.3330 279° West 461 531 36,000  Level FlightAware ADS-B
Wed 04:59:52 PM 36.4360 -93.4290 279° West 462 532 36,000  Level FlightAware ADS-B
Wed 05:00:24 PM 36.4460 -93.5130 278° West 462 532 36,000  Level FlightAware ADS-B
Wed 05:01:00 PM 36.4570 -93.6060 278° West 463 533 36,000  Level FlightAware ADS-B
Wed 05:01:38 PM 36.4680 -93.7060 278° West 464 534 36,000  Level FlightAware ADS-B
Wed 05:02:12 PM 36.4780 -93.7990 278° West 466 536 36,000  Level FlightAware ADS-B
Wed 05:02:48 PM 36.4890 -93.8960 278° West 467 537 36,000  Level FlightAware ADS-B
Wed 05:03:20 PM 36.4980 -93.9820 277° West 468 539 36,000  Level FlightAware ADS-B
Wed 05:03:56 PM 36.5070 -94.0770 277° West 469 540 36,000  Level FlightAware ADS-B
Wed 05:04:32 PM 36.5150 -94.1720 276° West 469 540 36,000  Level FlightAware ADS-B
Wed 05:05:08 PM 36.5240 -94.2700 277° West 468 539 36,000  Level FlightAware ADS-B
Wed 05:05:38 PM 36.5310 -94.3510 276° West 467 537 36,000  Level FlightAware ADS-B
Wed 05:06:18 PM 36.5400 -94.4590 276° West 467 537 36,000  Level FlightAware ADS-B
Wed 05:06:50 PM 36.5480 -94.5440 277° West 466 536 36,000  Level FlightAware ADS-B
Wed 05:07:28 PM 36.5570 -94.6470 276° West 467 537 36,000  Level FlightAware ADS-B
Wed 05:08:00 PM 36.5640 -94.7310 276° West 468 539 36,000  Level FlightAware ADS-B
Wed 05:08:37 PM 36.5720 -94.8290 276° West 469 540 36,000  Level FlightAware ADS-B
Wed 05:09:10 PM 36.5790 -94.9190 276° West 470 541 36,000  Level FlightAware ADS-B
Wed 05:09:48 PM 36.5880 -95.0230 276° West 470 541 36,000  Level FlightAware ADS-B
Wed 05:10:24 PM 36.5960 -95.1200 276° West 470 541 36,000  Level FlightAware ADS-B
Wed 05:10:56 PM 36.6030 -95.2070 276° West 470 541 36,000  Level FlightAware ADS-B
Wed 05:11:32 PM 36.6110 -95.3030 276° West 470 541 36,000  Level FlightAware ADS-B
Wed 05:12:14 PM 36.6200 -95.4170 276° West 470 541 36,000  Level FlightAware ADS-B
Wed 05:12:51 PM 36.6280 -95.5160 276° West 470 541 36,000  Level FlightAware ADS-B
Wed 05:13:23 PM 36.6350 -95.6050 276° West 471 542 36,000  Level FlightAware ADS-B
Wed 05:13:58 PM 36.6420 -95.6980 275° West 471 542 36,000  Level FlightAware ADS-B
Wed 05:14:32 PM 36.6490 -95.7900 275° West 471 542 36,000  Level FlightAware ADS-B
Wed 05:15:10 PM 36.6570 -95.8900 276° West 469 540 36,000  Level FlightAware ADS-B
Wed 05:15:44 PM 36.6640 -95.9850 275° West 470 541 36,000  Level FlightAware ADS-B
Wed 05:16:21 PM 36.6710 -96.0830 275° West 470 541 36,000  Level FlightAware ADS-B
Wed 05:16:53 PM 36.6770 -96.1710 275° West 471 542 36,000  Level FlightAware ADS-B
Wed 05:17:30 PM 36.6840 -96.2720 275° West 471 542 36,000  Level FlightAware ADS-B
Wed 05:18:03 PM 36.6910 -96.3610 276° West 471 542 36,000  Level FlightAware ADS-B
Wed 05:18:39 PM 36.6980 -96.4580 275° West 471 542 36,000  Level FlightAware ADS-B
Wed 05:19:14 PM 36.7040 -96.5540 274° West 471 542 36,000  Level FlightAware ADS-B
Wed 05:19:54 PM 36.7110 -96.6600 275° West 472 543 36,000  Level FlightAware ADS-B
Wed 05:20:30 PM 36.7180 -96.7550 275° West 472 543 36,000  Level FlightAware ADS-B
Wed 05:21:14 PM 36.7250 -96.8780 274° West 469 540 36,000  Level FlightAware ADS-B
Wed 05:21:48 PM 36.7310 -96.9740 274° West 466 536 36,000  Level FlightAware ADS-B
Wed 05:22:23 PM 36.7370 -97.0650 275° West 463 533 36,000  Level FlightAware ADS-B
Wed 05:22:56 PM 36.7410 -97.1510 273° West 462 532 36,000  Level FlightAware ADS-B
Wed 05:23:34 PM 36.7500 -97.2540 276° West 459 528 36,000  Level FlightAware ADS-B
Wed 05:24:09 PM 36.7600 -97.3470 278° West 458 527 36,000  Level FlightAware ADS-B
Wed 05:24:37 PM 36.7680 -97.4200 278° West 458 527 36,000  Level FlightAware ADS-B
Wed 05:25:17 PM 36.7790 -97.5240 278° West 458 527 36,000  Level FlightAware ADS-B
Wed 05:25:53 PM 36.7890 -97.6190 278° West 458 527 36,000  Level FlightAware ADS-B
Wed 05:26:28 PM 36.7980 -97.7110 277° West 459 528 36,000  Level FlightAware ADS-B
Wed 05:27:01 PM 36.8060 -97.7980 277° West 460 529 36,000  Level FlightAware ADS-B
Wed 05:27:36 PM 36.8150 -97.8940 277° West 461 531 36,000  Level FlightAware ADS-B
Wed 05:28:14 PM 36.8240 -97.9920 277° West 463 533 36,000  Level FlightAware ADS-B
Wed 05:28:46 PM 36.8310 -98.0780 276° West 464 534 36,000  Level FlightAware ADS-B
Wed 05:29:24 PM 36.8400 -98.1770 277° West 463 533 36,000  Level FlightAware ADS-B
Wed 05:29:54 PM 36.8470 -98.2580 276° West 464 534 36,000  Level FlightAware ADS-B
Wed 05:30:34 PM 36.8560 -98.3670 276° West 464 534 36,000  Level FlightAware ADS-B
Wed 05:31:07 PM 36.8640 -98.4560 276° West 465 535 36,000  Level FlightAware ADS-B
Wed 05:31:42 PM 36.8710 -98.5470 276° West 465 535 36,000  Level FlightAware ADS-B
Wed 05:32:15 PM 36.8780 -98.6370 276° West 466 536 36,000  Level FlightAware ADS-B
Wed 05:32:54 PM 36.8870 -98.7410 276° West 466 536 36,000  Level FlightAware ADS-B
Wed 05:33:26 PM 36.8940 -98.8280 276° West 466 536 36,000  Level FlightAware ADS-B
Wed 05:34:04 PM 36.9010 -98.9250 275° West 466 536 36,000  Level FlightAware ADS-B
Wed 05:34:39 PM 36.9090 -99.0230 276° West 466 536 36,000  Level FlightAware ADS-B
Wed 05:35:12 PM 36.9160 -99.1110 276° West 466 536 36,000  Level FlightAware ADS-B
Wed 05:35:44 PM 36.9220 -99.1950 275° West 466 536 36,000  Level FlightAware ADS-B
Wed 05:36:21 PM 36.9300 -99.2930 276° West 465 535 36,000  Level FlightAware ADS-B
Wed 05:37:04 PM 36.9390 -99.4120 275° West 466 536 36,000  Level FlightAware ADS-B
Wed 05:37:41 PM 36.9470 -99.5120 276° West 467 537 36,000  Level FlightAware ADS-B
Wed 05:38:16 PM 36.9530 -99.6060 275° West 467 537 36,000  Level FlightAware ADS-B
Wed 05:38:40 PM 36.9570 -99.6680 275° West 468 539 36,000  Level FlightAware ADS-B
Wed 05:39:19 PM 36.9620 -99.7570 274° West 468 539 36,000  Level FlightAware ADS-B
Wed 05:39:56 PM 36.9670 -99.8420 274° West 468 539 36,000  Level FlightAware ADS-B
Wed 05:40:29 PM 36.9770 -99.9610 276° West 467 537 36,000  Level FlightAware ADS-B
Wed 05:41:12 PM 36.9840 -100.0660 275° West 467 537 36,000  Level FlightAware ADS-B
Wed 05:41:48 PM 36.9890 -100.1490 274° West 467 537 36,000  Level FlightAware ADS-B
Wed 05:42:24 PM 36.9930 -100.2310 274° West 467 537 36,000  Level FlightAware ADS-B
Wed 05:43:00 PM 36.9980 -100.3140 274° West 467 537 36,000  Level FlightAware ADS-B
Wed 05:43:36 PM 37.0020 -100.3970 273° West 467 537 36,000  Level FlightAware ADS-B
Wed 05:44:12 PM 37.0070 -100.4790 274° West 467 537 36,000  Level FlightAware ADS-B
Wed 05:44:49 PM 37.0120 -100.5640 274° West 467 537 36,000  Level FlightAware ADS-B
Wed 05:45:27 PM 37.0170 -100.6510 274° West 467 537 36,000  Level FlightAware ADS-B
Wed 05:46:03 PM 37.0210 -100.7340 273° West 467 537 36,000  Level FlightAware ADS-B
Wed 05:46:39 PM 37.0260 -100.8160 274° West 467 537 36,000  Level FlightAware ADS-B
Wed 05:47:16 PM 37.0300 -100.9010 273° West 467 537 36,000  Level FlightAware ADS-B
Wed 05:47:52 PM 37.0350 -100.9840 274° West 467 537 36,000  Level FlightAware ADS-B
Wed 05:48:26 PM 37.0390 -101.0620 274° West 467 537 36,000  Level FlightAware ADS-B
Wed 05:49:00 PM 37.0440 -101.1400 275° West 467 537 36,000  Level FlightAware ADS-B
Wed 05:49:36 PM 37.0480 -101.2230 273° West 467 537 36,000  Level FlightAware ADS-B
Wed 05:50:13 PM 37.0530 -101.3080 274° West 467 537 36,000  Level FlightAware ADS-B
Wed 05:50:59 PM 37.0958 -101.6264 274° West 462 532 36,000  Level Kansas City Center
Wed 05:52:00 PM 37.1106 -101.8044 276° West 461 531 36,000  Level Kansas City Center
Wed 05:53:02 PM 37.1233 -101.9586 276° West 462 532 36,000  Level Kansas City Center
Wed 05:58:21 PM 37.1870 -102.8290 276° West 463 533 36,000  Level FlightAware ADS-B
Wed 05:58:51 PM 37.1925 -102.9100 275° West 463 533 36,000  Level FlightAware ADS-B
Wed 05:59:22 PM 37.1981 -102.9930 275° West 463 533 36,000  Level FlightAware ADS-B
Wed 05:59:53 PM 37.2035 -103.0750 275° West 464 534 36,000  Level FlightAware ADS-B
Wed 06:00:23 PM 37.2089 -103.1570 275° West 464 534 36,000  Level FlightAware ADS-B
Wed 06:00:54 PM 37.2141 -103.2380 275° West 464 534 36,000  Level FlightAware ADS-B
Wed 06:01:25 PM 37.2194 -103.3220 275° West 464 534 36,000 164 Level FlightAware ADS-B
Wed 06:04:33 PM 37.2490 -103.8300 274° West 466 536 36,600 385 Climbing FlightAware ADS-B
Wed 06:05:03 PM 37.2533 -103.9120 274° West 461 531 37,400 1,377 Climbing FlightAware ADS-B
Wed 06:05:34 PM 37.2577 -103.9950 274° West 457 526 38,000 571 Climbing FlightAware ADS-B
Wed 06:06:06 PM 37.2655 -104.0790 277° West 452 520 38,000  Level FlightAware ADS-B
Wed 06:06:32 PM 37.2743 -104.1450 280° West 449 517 38,000  Level FlightAware ADS-B
Wed 06:07:03 PM 37.2864 -104.2260 281° West 450 518 38,000  Level FlightAware ADS-B
Wed 06:07:51 PM 37.3049 -104.3500 281° West 451 519 38,000  Level FlightAware ADS-B
Wed 06:08:21 PM 37.3169 -104.4290 281° West 453 521 38,000  Level FlightAware ADS-B
Wed 06:09:04 PM 37.3334 -104.5380 281° West 454 522 38,000  Level FlightAware ADS-B
Wed 06:09:59 PM 37.3550 -104.6830 281° West 454 522 38,000  Level FlightAware ADS-B
Wed 06:10:36 PM 37.3695 -104.7800 281° West 455 524 38,000  Level FlightAware ADS-B
Wed 06:11:45 PM 37.3961 -104.9590 281° West 454 522 38,000  Level FlightAware ADS-B
Wed 06:12:14 PM 37.4090 -105.0320 283° West 450 518 38,000  Level FlightAware ADS-B
Wed 06:12:38 PM 37.4259 -105.0910 290° West 450 518 38,000  Level FlightAware ADS-B
Wed 06:13:08 PM 37.4504 -105.1660 292° West 448 516 38,000  Level FlightAware ADS-B
Wed 06:13:40 PM 37.4756 -105.2400 293° West 447 514 38,000  Level FlightAware ADS-B
Wed 06:14:10 PM 37.4985 -105.3150 291° West 447 514 38,000  Level FlightAware ADS-B
Wed 06:14:26 PM 37.5064 -105.3540 284° West 445 512 38,000  Level FlightAware ADS-B
Wed 06:14:54 PM 37.5111 -105.4260 275° West 445 512 38,000  Level FlightAware ADS-B
Wed 06:15:02 PM 37.5129 -105.4470 276° West 445 512 38,000  Level FlightAware ADS-B
Wed 06:15:32 PM 37.5227 -105.5240 279° West 445 512 38,000  Level FlightAware ADS-B
Wed 06:16:03 PM 37.5324 -105.6030 279° West 445 512 38,000  Level FlightAware ADS-B
Wed 06:16:33 PM 37.5428 -105.6800 280° West 444 511 38,000  Level FlightAware ADS-B
Wed 06:17:03 PM 37.5534 -105.7580 280° West 444 511 38,000  Level FlightAware ADS-B
Wed 06:17:34 PM 37.5640 -105.8350 280° West 442 509 38,000  Level FlightAware ADS-B
Wed 06:18:05 PM 37.5750 -105.9150 280° West 443 510 38,000  Level FlightAware ADS-B
Wed 06:18:35 PM 37.5855 -105.9930 280° West 444 511 38,000  Level FlightAware ADS-B
Wed 06:19:05 PM 37.5959 -106.0700 280° West 444 511 38,000  Level FlightAware ADS-B
Wed 06:19:40 PM 37.6075 -106.1570 280° West 442 509 38,000  Level FlightAware ADS-B
Wed 06:20:10 PM 37.6178 -106.2350 279° West 441 507 38,000  Level FlightAware ADS-B
Wed 06:20:55 PM 37.6320 -106.3460 279° West 438 504 38,000  Level FlightAware ADS-B
Wed 06:21:17 PM 37.6401 -106.4050 280° West 439 505 38,000  Level FlightAware ADS-B
Wed 06:21:47 PM 37.6499 -106.4810 279° West 440 506 38,000  Level FlightAware ADS-B
Wed 06:22:18 PM 37.6601 -106.5600 279° West 441 507 38,000  Level FlightAware ADS-B
Wed 06:22:50 PM 37.6703 -106.6390 279° West 442 509 38,000  Level FlightAware ADS-B
Wed 06:23:37 PM 37.6858 -106.7600 279° West 443 510 38,000  Level FlightAware ADS-B
Wed 06:24:25 PM 37.7010 -106.8810 279° West 442 509 38,000  Level FlightAware ADS-B
Wed 06:24:59 PM 37.7110 -106.9570 279° West 442 509 38,000  Level FlightAware ADS-B
Wed 06:25:37 PM 37.7230 -107.0540 279° West 444 511 38,000  Level FlightAware ADS-B
Wed 06:26:18 PM 37.7350 -107.1490 279° West 446 513 38,000  Level FlightAware ADS-B
Wed 06:27:11 PM 37.7550 -107.3080 279° West 450 518 38,000  Level FlightAware ADS-B
Wed 06:27:49 PM 37.7670 -107.4060 279° West 452 520 38,000  Level FlightAware ADS-B
Wed 06:28:24 PM 37.7780 -107.4980 279° West 453 521 38,000  Level FlightAware ADS-B
Wed 06:28:59 PM 37.7890 -107.5900 279° West 453 521 38,000  Level FlightAware ADS-B
Wed 06:29:35 PM 37.8000 -107.6840 278° West 453 521 38,000  Level FlightAware ADS-B
Wed 06:30:11 PM 37.8100 -107.7720 278° West 453 521 38,000  Level FlightAware ADS-B
Wed 06:30:41 PM 37.8200 -107.8570 278° West 454 522 38,000  Level FlightAware ADS-B
Wed 06:31:20 PM 37.8310 -107.9590 278° West 455 524 38,000  Level FlightAware ADS-B
Wed 06:31:55 PM 37.8410 -108.0500 278° West 456 525 38,000  Level FlightAware ADS-B
Wed 06:32:33 PM 37.8510 -108.1380 278° West 456 525 38,000  Level FlightAware ADS-B
Wed 06:33:19 PM 37.8660 -108.2660 278° West 454 522 38,000  Level FlightAware ADS-B
Wed 06:33:55 PM 37.8770 -108.3660 278° West 453 521 38,000  Level FlightAware ADS-B
Wed 06:34:27 PM 37.8860 -108.4520 278° West 450 518 38,000  Level FlightAware ADS-B
Wed 06:35:11 PM 37.8980 -108.5570 278° West 450 518 38,000  Level FlightAware ADS-B
Wed 06:36:01 PM 37.9130 -108.6940 278° West 449 517 38,000  Level FlightAware ADS-B
Wed 06:36:34 PM 37.9230 -108.7830 278° West 444 511 38,000  Level FlightAware ADS-B
Wed 06:37:08 PM 37.9320 -108.8690 278° West 443 510 38,000  Level FlightAware ADS-B
Wed 06:37:46 PM 37.9410 -108.9550 278° West 444 511 38,000  Level FlightAware ADS-B
Wed 06:38:21 PM 37.9490 -109.0390 277° West 445 512 38,000  Level FlightAware ADS-B
Wed 06:38:56 PM 37.9630 -109.1500 279° West 448 516 38,000  Level FlightAware ADS-B
Wed 06:39:27 PM 37.9720 -109.2300 278° West 449 517 38,000  Level FlightAware ADS-B
Wed 06:39:58 PM 37.9810 -109.3050 279° West 449 517 38,000  Level FlightAware ADS-B
Wed 06:40:33 PM 37.9920 -109.4030 278° West 449 517 38,000  Level FlightAware ADS-B
Wed 06:41:10 PM 38.0020 -109.5000 277° West 449 517 38,000  Level FlightAware ADS-B
Wed 06:41:51 PM 38.0140 -109.6050 278° West 448 516 38,000  Level FlightAware ADS-B
Wed 06:42:21 PM 38.0220 -109.6830 277° West 446 513 38,000  Level FlightAware ADS-B
Wed 06:43:02 PM 38.0320 -109.7790 278° West 444 511 38,000  Level FlightAware ADS-B
Wed 06:43:34 PM 38.0400 -109.8600 277° West 443 510 38,000  Level FlightAware ADS-B
Wed 06:44:14 PM 38.0510 -109.9740 277° West 439 505 38,000  Level FlightAware ADS-B
Wed 06:44:43 PM 38.0590 -110.0490 278° West 438 504 38,000  Level FlightAware ADS-B
Wed 06:45:27 PM 38.0700 -110.1610 277° West 435 501 38,000  Level FlightAware ADS-B
Wed 06:46:04 PM 38.0790 -110.2530 277° West 434 499 38,000  Level FlightAware ADS-B
Wed 06:46:43 PM 38.0880 -110.3510 277° West 432 497 38,000  Level FlightAware ADS-B
Wed 06:47:18 PM 38.0960 -110.4310 277° West 432 497 38,000  Level FlightAware ADS-B
Wed 06:47:54 PM 38.1050 -110.5310 277° West 432 497 38,000  Level FlightAware ADS-B
Wed 06:48:29 PM 38.1140 -110.6180 278° West 430 495 38,000  Level FlightAware ADS-B
Wed 06:49:06 PM 38.1220 -110.7120 276° West 430 495 38,000  Level FlightAware ADS-B
Wed 06:49:41 PM 38.1300 -110.7990 277° West 430 495 38,000  Level FlightAware ADS-B
Wed 06:50:15 PM 38.1370 -110.8840 276° West 431 496 38,000  Level FlightAware ADS-B
Wed 06:51:01 PM 38.1460 -110.9970 276° West 433 498 38,000  Level FlightAware ADS-B
Wed 06:51:32 PM 38.1520 -111.0720 276° West 435 501 38,000  Level FlightAware ADS-B
Wed 06:52:07 PM 38.1600 -111.1600 277° West 437 503 38,000  Level FlightAware ADS-B
Wed 06:52:59 PM 38.1710 -111.2940 276° West 439 505 38,000  Level FlightAware ADS-B
Wed 06:53:35 PM 38.1770 -111.3720 276° West 439 505 38,000  Level FlightAware ADS-B
Wed 06:54:12 PM 38.1840 -111.4530 276° West 439 505 38,000  Level FlightAware ADS-B
Wed 06:54:48 PM 38.1900 -111.5320 276° West 439 505 38,000  Level FlightAware ADS-B
Wed 06:55:24 PM 38.1970 -111.6100 277° West 439 505 38,000  Level FlightAware ADS-B
Wed 06:56:00 PM 38.2030 -111.6890 276° West 439 505 38,000  Level FlightAware ADS-B
Wed 06:56:36 PM 38.2100 -111.7680 276° West 439 505 38,000  Level FlightAware ADS-B
Wed 06:57:12 PM 38.2160 -111.8460 276° West 439 505 38,000  Level FlightAware ADS-B
Wed 06:57:48 PM 38.2230 -111.9250 276° West 439 505 38,000  Level FlightAware ADS-B
Wed 06:58:25 PM 38.2290 -112.0060 275° West 439 505 38,000  Level FlightAware ADS-B
Wed 06:59:01 PM 38.2360 -112.0850 276° West 439 505 38,000  Level FlightAware ADS-B
Wed 06:59:37 PM 38.2420 -112.1630 276° West 439 505 38,000  Level FlightAware ADS-B
Wed 06:59:46 PM 38.2612 -112.3700 277° West 446 513 38,000  Level FlightAware ADS-B
Wed 07:00:24 PM 38.2690 -112.4680 276° West 446 513 38,000  Level FlightAware ADS-B
Wed 07:01:20 PM 38.2805 -112.6160 276° West 447 514 38,000  Level FlightAware ADS-B
Wed 07:02:07 PM 38.2899 -112.7390 276° West 449 517 38,000  Level FlightAware ADS-B
Wed 07:02:40 PM 38.2964 -112.8260 275° West 451 519 38,000  Level FlightAware ADS-B
Wed 07:03:19 PM 38.3044 -112.9320 276° West 451 519 38,000  Level FlightAware ADS-B
Wed 07:03:54 PM 38.3094 -112.9936 276° West 455 524 38,000  Level Salt Lake Center
Wed 07:04:56 PM 38.3239 -113.1839 276° West 453 521 38,000  Level Salt Lake Center
Wed 07:05:58 PM 38.3347 -113.3417 275° West 452 520 38,000  Level Salt Lake Center
Wed 07:07:00 PM 38.3464 -113.5000 275° West 453 521 38,000  Level Salt Lake Center
Wed 07:08:02 PM 38.3567 -113.6586 275° West 452 520 38,000  Level Salt Lake Center
Wed 07:10:05 PM 38.3783 -113.9756 275° West 452 520 38,000  Level Salt Lake Center
Wed 07:11:07 PM 38.3892 -114.1653 274° West 449 517 38,000  Level Salt Lake Center
Wed 07:12:09 PM 38.4000 -114.3225 275° West 448 516 38,000  Level Salt Lake Center
Wed 07:13:11 PM 38.4086 -114.4814 274° West 450 518 38,000  Level Salt Lake Center
Wed 07:14:13 PM 38.4167 -114.6406 274° West 452 520 38,000  Level Salt Lake Center
Wed 07:15:15 PM 38.4264 -114.7997 275° West 452 520 38,000  Level Salt Lake Center
Wed 07:16:17 PM 38.4353 -114.9583 274° West 451 519 38,000  Level Salt Lake Center
Wed 07:17:19 PM 38.4456 -115.1486 274° West 451 519 38,000  Level Salt Lake Center
Wed 07:18:21 PM 38.4544 -115.3081 274° West 452 520 38,000  Level Salt Lake Center
Wed 07:19:22 PM 38.4631 -115.4558 274° West 450 518 38,000  Level Salt Lake Center
Wed 07:20:24 PM 38.4703 -115.6144 273° West 451 519 38,000  Level Salt Lake Center
Wed 07:21:26 PM 38.4778 -115.7739 273° West 450 518 38,000  Level Salt Lake Center
Wed 07:22:28 PM 38.4881 -115.9650 274° West 451 519 38,000  Level Salt Lake Center
Wed 07:23:30 PM 38.4944 -116.1236 273° West 449 517 38,000  Level Salt Lake Center
Wed 07:24:32 PM 38.5022 -116.2836 274° West 452 520 38,000  Level Salt Lake Center
Wed 07:25:34 PM 38.5100 -116.4406 274° West 447 514 38,000  Level Salt Lake Center
Wed 07:26:35 PM 38.5161 -116.5989 273° West 448 516 38,000  Level Salt Lake Center
Wed 07:27:18 PM 38.5219 -116.7267 273° West 451 519 38,000  Level Oakland Center
Wed 07:28:20 PM 38.5286 -116.8864 273° West 454 522 38,000  Level Oakland Center
Wed 07:29:21 PM 38.5353 -117.0469 273° West 457 526 38,000 -614 Level Oakland Center
Wed 07:35:20 PM 38.5150 -118.0270 273° West 449 517 33,700 -790 Descending FlightAware ADS-B
Wed 07:35:56 PM 38.5110 -118.1220 267° West 455 524 32,800 -1,417 Descending FlightAware ADS-B
Wed 07:36:32 PM 38.5100 -118.2200 269° West 459 528 32,000 -716 Descending FlightAware ADS-B
Wed 07:37:03 PM 38.5090 -118.3040 269° West 467 537 32,000  Level FlightAware ADS-B
Wed 07:37:40 PM 38.5070 -118.4090 269° West 472 543 32,000  Level FlightAware ADS-B
Wed 07:38:10 PM 38.5050 -118.4930 268° West 474 545 32,000  Level FlightAware ADS-B
Wed 07:38:46 PM 38.5030 -118.5920 269° West 477 549 32,000  Level FlightAware ADS-B
Wed 07:39:26 PM 38.5010 -118.7020 269° West 480 552 32,000  Level FlightAware ADS-B
Wed 07:40:11 PM 38.4970 -118.8190 268° West 480 552 32,000 -71 Level FlightAware ADS-B
Wed 07:40:50 PM 38.5030 -118.9460 273° West 479 551 31,900 -423 Descending FlightAware ADS-B
Wed 07:41:22 PM 38.5130 -119.0340 278° West 475 547 31,500 -1,029 Descending FlightAware ADS-B
Wed 07:42:00 PM 38.5260 -119.1410 279° West 478 550 30,700 -1,216 Descending FlightAware ADS-B
Wed 07:42:36 PM 38.5390 -119.2400 280° West 478 550 30,000 -618 Descending FlightAware ADS-B
Wed 07:43:08 PM 38.5470 -119.3300 277° West 477 549 30,000 -265 Level FlightAware ADS-B
Wed 07:43:44 PM 38.5550 -119.4320 276° West 470 541 29,700 -2,083 Descending FlightAware ADS-B
Wed 07:44:20 PM 38.5660 -119.5330 278° West 483 556 27,500 -3,794 Descending FlightAware ADS-B
Wed 07:44:52 PM 38.5790 -119.6220 281° West 496 571 25,400 -3,794 Descending FlightAware ADS-B
Wed 07:45:28 PM 38.5930 -119.7280 280° West 495 570 23,200 -3,081 Descending FlightAware ADS-B
Wed 07:46:06 PM 38.6080 -119.8350 280° West 475 547 21,600 -2,735 Descending FlightAware ADS-B
Wed 07:46:36 PM 38.6190 -119.9170 280° West 466 536 20,100 -2,912 Descending FlightAware ADS-B
Wed 07:47:14 PM 38.6320 -120.0190 279° West 449 517 18,300 -2,919 Descending FlightAware ADS-B
Wed 07:47:50 PM 38.6430 -120.1070 279° West 437 503 16,500 -2,959 Descending FlightAware ADS-B
Wed 07:48:27 PM 38.6550 -120.2000 279° West 428 493 14,700 -1,917 Descending FlightAware ADS-B
Wed 07:49:02 PM 38.6670 -120.2860 280° West 394 453 14,200 -1,521 Descending FlightAware ADS-B
Wed 07:49:38 PM 38.6770 -120.3720 278° West 383 441 12,900 -1,333 Descending FlightAware ADS-B
Wed 07:50:23 PM 38.6870 -120.4600 278° West 377 434 12,400 -1,768 Descending FlightAware ADS-B
Wed 07:51:13 PM 38.7030 -120.5780 280° West 347 399 10,100 -1,714 Descending FlightAware ADS-B
Wed 07:51:47 PM 38.7110 -120.6430 279° West 310 357 10,000 -667 Descending FlightAware ADS-B
Wed 07:52:07 PM 38.7150 -120.6780 278° West 299 344 9,500 -2,000 Descending FlightAware ADS-B
Wed 07:52:23 PM 38.7190 -120.7050 281° West 298 343 8,800 -2,500 Descending FlightAware ADS-B
Wed 07:52:43 PM 38.7230 -120.7410 278° West 301 346 8,000 -1,800 Descending FlightAware ADS-B
Wed 07:53:03 PM 38.7270 -120.7750 279° West 298 343 7,600 -1,059 Descending FlightAware ADS-B
Wed 07:53:17 PM 38.7300 -120.7970 280° West 292 336 7,400 -667 Descending FlightAware ADS-B
Wed 07:53:39 PM 38.7350 -120.8350 280° West 276 318 7,200 -346 Descending FlightAware ADS-B
Wed 07:54:09 PM 38.7410 -120.8810 280° West 251 289 7,100 -133 Descending FlightAware ADS-B
Wed 07:54:24 PM 38.7430 -120.9020 277° West 239 275 7,100 -462 Level FlightAware ADS-B
Wed 07:54:48 PM 38.7470 -120.9360 279° West 226 260 6,800 -600 Descending FlightAware ADS-B
Wed 07:55:14 PM 38.7420 -120.9660 258° West 197 227 6,600 -652 Descending FlightAware ADS-B
Wed 07:55:34 PM 38.7330 -120.9860 240° Southwest 195 224 6,300 -1,364 Descending FlightAware ADS-B
Wed 07:55:58 PM 38.7200 -121.0090 234° Southwest 199 229 5,600 -1,600 Descending FlightAware ADS-B
Wed 07:56:19 PM 38.7080 -121.0300 234° Southwest 205 236 5,100 -1,463 Descending FlightAware ADS-B
Wed 07:56:39 PM 38.6970 -121.0490 233° Southwest 216 249 4,600 -1,538 Descending FlightAware ADS-B
Wed 07:56:58 PM 38.6850 -121.0700 234° Southwest 219 252 4,100 -1,412 Descending FlightAware ADS-B
Wed 07:57:13 PM 38.6750 -121.0860 231° Southwest 215 247 3,800 -1,167 Descending FlightAware ADS-B
Wed 07:57:34 PM 38.6640 -121.1070 236° Southwest 205 236 3,400 -1,116 Descending FlightAware ADS-B
Wed 07:57:56 PM 38.6500 -121.1300 232° Southwest 204 235 3,000 -1,143 Descending FlightAware ADS-B
Wed 07:58:16 PM 38.6390 -121.1500 235° Southwest 199 229 2,600 -955 Descending FlightAware ADS-B
Wed 07:58:40 PM 38.6270 -121.1710 234° Southwest 193 222 2,300 -955 Descending FlightAware ADS-B
Wed 07:59:00 PM 38.6160 -121.1900 233° Southwest 180 207 1,900 -1,000 Descending FlightAware ADS-B
Wed 07:59:28 PM 38.6030 -121.2120 233° Southwest 157 181 1,500 -818 Descending FlightAware ADS-B
Wed 07:59:44 PM 38.5970 -121.2220 232° Southwest 138 159 1,300 -706 Descending FlightAware ADS-B
Wed 08:00:02 PM 38.5910 -121.2330 235° Southwest 125 144 1,100 -600 Descending FlightAware ADS-B
Wed 08:00:24 PM 38.5830 -121.2470 234° Southwest 124 143 900 -250 Descending FlightAware ADS-B
Wed 08:00:50 PM 38.5760 -121.2600 235° Southwest 124 143 900 -475 Level FlightAware ADS-B
Wed 08:02:05 PM 38.5536 -121.2997 235° Southwest 117 135 100 -353 Descending Oakland Center
Wed 08:03:06 PM 38.5469 -121.3133 238° Southwest 84 97 100  Level Oakland Center

Login

Don't have an account? Register now (free) for customized features, flight alerts, and more!